createdAt,value
2018-12-03T00:01:37.856Z,1.10
2018-12-03T00:04:17.706Z,1.70
2018-12-03T00:06:48.442Z,1.47
2018-12-03T00:09:19.357Z,1.70
2018-12-03T00:11:50.282Z,1.60
2018-12-03T00:14:20.874Z,2.13
2018-12-03T00:16:51.490Z,1.50
2018-12-03T00:19:23.026Z,1.20
2018-12-03T00:21:53.747Z,1.60
2018-12-03T00:24:24.493Z,1.10
2018-12-03T00:26:55.257Z,1.27
2018-12-03T00:29:26.386Z,1.73
2018-12-03T00:31:56.978Z,1.10
2018-12-03T00:34:27.547Z,1.07
2018-12-03T00:36:58.125Z,1.40
2018-12-03T00:39:28.748Z,1.30
2018-12-03T00:41:59.337Z,3.20
2018-12-03T00:44:29.931Z,1.30
2018-12-03T00:47:00.499Z,1.43
2018-12-03T00:49:31.082Z,1.30
2018-12-03T00:52:01.713Z,1.20
2018-12-03T00:54:32.437Z,1.73
2018-12-03T00:57:03.057Z,1.10
2018-12-03T00:59:33.647Z,1.40
2018-12-03T01:02:04.623Z,1.10
2018-12-03T01:04:35.263Z,1.70
2018-12-03T01:07:06.723Z,1.10
2018-12-03T01:09:37.450Z,1.23
2018-12-03T01:12:08.179Z,1.00
2018-12-03T01:14:38.754Z,1.07
2018-12-03T01:17:09.339Z,0.80
2018-12-03T01:19:39.948Z,1.10
2018-12-03T01:22:10.611Z,1.30
2018-12-03T01:24:42.064Z,1.10
2018-12-03T01:27:12.662Z,1.83
2018-12-03T01:29:43.429Z,1.10
2018-12-03T01:32:14.673Z,1.30
2018-12-03T01:34:45.724Z,1.33
2018-12-03T01:37:16.306Z,1.20
2018-12-03T01:39:46.983Z,1.33
2018-12-03T01:42:17.590Z,1.13
2018-12-03T01:44:48.205Z,1.10
2018-12-03T01:47:18.793Z,1.00
2018-12-03T01:49:49.374Z,1.20
2018-12-03T01:52:26.538Z,0.90
2018-12-03T01:54:57.629Z,1.17
2018-12-03T01:57:28.296Z,1.30
2018-12-03T01:59:59.178Z,1.30
2018-12-03T02:02:29.830Z,2.30
2018-12-03T02:05:00.777Z,1.30
2018-12-03T02:07:31.155Z,1.17
2018-12-03T02:10:02.124Z,0.93
2018-12-03T02:12:32.982Z,1.10
2018-12-03T02:15:03.757Z,1.20
2018-12-03T02:17:34.702Z,1.10
2018-12-03T02:20:09.978Z,1.00
2018-12-03T02:22:41.125Z,1.20
2018-12-03T02:25:12.556Z,1.67
2018-12-03T02:27:43.197Z,1.53
2018-12-03T02:30:15.822Z,1.40
2018-12-03T02:32:46.370Z,2.43
2018-12-03T02:35:18.028Z,1.70
2018-12-03T02:37:48.701Z,2.33
2018-12-03T02:40:19.338Z,1.40
2018-12-03T02:42:50.378Z,1.40
2018-12-03T02:45:20.938Z,1.00
2018-12-03T02:47:51.556Z,1.13
2018-12-03T02:50:22.147Z,1.70
2018-12-03T02:52:52.931Z,0.80
2018-12-03T02:55:23.504Z,1.77
2018-12-03T02:57:54.088Z,1.10
2018-12-03T03:00:24.666Z,1.10
2018-12-03T03:02:55.262Z,1.10
2018-12-03T03:05:25.842Z,1.10
2018-12-03T03:07:57.307Z,2.10
2018-12-03T03:10:27.944Z,1.20
2018-12-03T03:12:58.526Z,1.77
2018-12-03T03:15:29.113Z,1.77
2018-12-03T03:17:59.714Z,2.27
2018-12-03T03:20:30.323Z,1.40
2018-12-03T03:23:00.881Z,1.83
2018-12-03T03:25:31.577Z,1.43
2018-12-03T03:28:02.189Z,1.33
2018-12-03T03:30:33.481Z,0.93
2018-12-03T03:33:05.759Z,1.00
2018-12-03T03:35:36.534Z,1.00
2018-12-03T03:38:07.275Z,0.93
2018-12-03T03:40:37.942Z,1.40
2018-12-03T03:43:08.551Z,1.00
2018-12-03T03:45:39.285Z,1.10
2018-12-03T03:48:09.848Z,1.00
2018-12-03T03:50:40.446Z,2.60
2018-12-03T03:53:11.201Z,1.80
2018-12-03T03:55:42.047Z,1.23
2018-12-03T03:58:13.518Z,1.00
2018-12-03T04:00:44.833Z,1.10
2018-12-03T04:03:15.684Z,0.93
2018-12-03T04:05:46.343Z,2.60
2018-12-03T04:08:17.072Z,1.20
2018-12-03T04:10:47.765Z,1.20
2018-12-03T04:13:18.764Z,1.97
2018-12-03T04:15:49.586Z,1.10
2018-12-03T04:18:20.470Z,1.20
2018-12-03T04:20:52.356Z,2.37
2018-12-03T04:23:22.947Z,1.10
2018-12-03T04:25:54.674Z,1.00
2018-12-03T04:28:25.203Z,1.00
2018-12-03T04:30:55.776Z,1.10
2018-12-03T04:33:26.709Z,1.00
2018-12-03T04:35:57.338Z,1.27
2018-12-03T04:38:27.923Z,1.80
2018-12-03T04:40:58.584Z,1.10
2018-12-03T04:43:29.542Z,0.80
2018-12-03T04:46:00.398Z,0.90
2018-12-03T04:48:31.110Z,1.27
2018-12-03T04:51:01.726Z,1.53
2018-12-03T04:53:32.369Z,1.10
2018-12-03T04:56:02.946Z,4.77
2018-12-03T04:58:33.522Z,1.17
2018-12-03T05:01:04.710Z,1.10
2018-12-03T05:03:35.339Z,1.20
2018-12-03T05:06:06.346Z,1.33
2018-12-03T05:08:36.926Z,1.00
2018-12-03T05:11:07.726Z,0.90
2018-12-03T05:13:38.363Z,1.10
2018-12-03T05:16:10.014Z,1.43
2018-12-03T05:18:40.573Z,1.30
2018-12-03T05:21:11.190Z,1.57
2018-12-03T05:23:41.783Z,0.90
2018-12-03T05:26:12.387Z,1.00
2018-12-03T05:28:43.029Z,1.53
2018-12-03T05:31:13.655Z,1.37
2018-12-03T05:33:43.977Z,1.00
2018-12-03T05:36:14.611Z,1.17
2018-12-03T05:38:45.259Z,0.90
2018-12-03T05:41:16.387Z,1.50
2018-12-03T05:43:46.976Z,1.00
2018-12-03T05:46:17.802Z,1.40
2018-12-03T05:48:48.406Z,1.73
2018-12-03T05:51:19.022Z,1.20
2018-12-03T05:53:50.209Z,1.33
2018-12-03T05:56:20.890Z,1.70
2018-12-03T05:58:51.639Z,2.50
2018-12-03T06:01:22.221Z,1.20
2018-12-03T06:03:53.002Z,1.20
2018-12-03T06:06:23.591Z,1.00
2018-12-03T06:08:54.270Z,1.03
2018-12-03T06:11:24.825Z,1.13
2018-12-03T06:13:55.448Z,1.10
2018-12-03T06:16:26.031Z,1.20
2018-12-03T06:18:56.880Z,3.43
2018-12-03T06:21:27.497Z,1.77
2018-12-03T06:23:58.694Z,1.07
2018-12-03T06:26:29.278Z,1.07
2018-12-03T06:29:00.131Z,1.97
2018-12-03T06:31:30.754Z,2.10
2018-12-03T06:34:01.403Z,1.17
2018-12-03T06:36:31.942Z,2.90
2018-12-03T06:39:02.639Z,1.50
2018-12-03T06:41:33.230Z,2.77
2018-12-03T06:44:03.863Z,1.10
2018-12-03T06:46:34.481Z,1.77
2018-12-03T06:49:05.281Z,1.40
2018-12-03T06:51:35.846Z,1.20
2018-12-03T06:54:06.434Z,1.37
2018-12-03T06:56:37.053Z,1.87
2018-12-03T06:59:07.937Z,2.03
2018-12-03T07:01:38.518Z,3.07
2018-12-03T07:04:09.082Z,2.47
2018-12-03T07:06:39.690Z,2.43
2018-12-03T07:09:12.589Z,3.20
2018-12-03T07:11:43.369Z,1.90
2018-12-03T07:14:13.902Z,1.93
2018-12-03T07:16:44.300Z,1.57
2018-12-03T07:19:14.984Z,1.27
2018-12-03T07:21:46.146Z,1.30
2018-12-03T07:24:16.702Z,1.30
2018-12-03T07:26:47.426Z,2.53
2018-12-03T07:29:19.204Z,1.73
2018-12-03T07:31:49.865Z,1.40
2018-12-03T07:34:20.753Z,1.17
2018-12-03T07:36:51.425Z,1.90
2018-12-03T07:39:22.070Z,5.03
2018-12-03T07:41:54.314Z,1.50
2018-12-03T07:44:25.173Z,1.40
2018-12-03T07:46:55.852Z,1.40
2018-12-03T07:49:26.570Z,2.23
2018-12-03T07:51:57.808Z,2.27
2018-12-03T07:54:28.414Z,1.60
2018-12-03T07:57:00.083Z,2.10
2018-12-03T07:59:30.671Z,4.90
2018-12-03T08:02:02.205Z,2.70
2018-12-03T08:04:32.967Z,1.57
2018-12-03T08:07:03.678Z,1.60
2018-12-03T08:09:34.254Z,2.83
2018-12-03T08:12:04.891Z,1.60
2018-12-03T08:14:35.528Z,1.43
2018-12-03T08:17:06.710Z,2.03
2018-12-03T08:19:37.307Z,1.93
2018-12-03T08:22:10.721Z,1.50
2018-12-03T08:24:41.320Z,3.10
2018-12-03T08:27:12.937Z,2.20
2018-12-03T08:29:43.518Z,1.70
2018-12-03T08:32:14.078Z,2.70
2018-12-03T08:34:44.700Z,2.83
2018-12-03T08:37:15.334Z,2.53
2018-12-03T08:39:45.900Z,2.13
2018-12-03T08:42:16.558Z,4.87
2018-12-03T08:44:47.299Z,6.00
2018-12-03T08:47:24.130Z,3.80
2018-12-03T08:49:54.733Z,3.80
2018-12-03T08:52:25.326Z,2.93
2018-12-03T08:54:56.322Z,2.70
2018-12-03T08:57:26.911Z,2.63
2018-12-03T08:59:57.551Z,3.13
2018-12-03T09:02:28.142Z,1.90
2018-12-03T09:04:58.761Z,2.30
2018-12-03T09:07:29.370Z,3.03
2018-12-03T09:10:00.060Z,2.23
2018-12-03T09:12:30.749Z,1.60
2018-12-03T09:15:01.315Z,1.50
2018-12-03T09:17:31.617Z,1.70
2018-12-03T09:20:02.433Z,1.43
2018-12-03T09:22:33.770Z,1.53
2018-12-03T09:25:09.114Z,1.87
2018-12-03T09:27:39.734Z,1.40
2018-12-03T09:30:10.661Z,2.20
2018-12-03T09:32:44.200Z,1.47
2018-12-03T09:35:16.575Z,1.50
2018-12-03T09:37:47.243Z,1.20
2018-12-03T09:40:21.296Z,1.97
2018-12-03T09:42:52.057Z,3.50
2018-12-03T09:45:22.981Z,1.70
2018-12-03T09:47:54.494Z,1.30
2018-12-03T09:50:26.402Z,2.20
2018-12-03T09:52:58.818Z,2.03
2018-12-03T09:55:32.432Z,2.10
2018-12-03T09:58:22.282Z,3.97
2018-12-03T10:00:52.912Z,3.63
2018-12-03T10:03:27.747Z,3.33
2018-12-03T10:06:06.559Z,4.60
2018-12-03T10:08:37.143Z,3.33
2018-12-03T10:11:08.067Z,3.37
2018-12-03T10:13:38.730Z,2.70
2018-12-03T10:16:09.360Z,3.87
2018-12-03T10:18:40.018Z,2.93
2018-12-03T10:21:10.602Z,2.60
2018-12-03T10:23:41.482Z,3.30
2018-12-03T10:26:14.365Z,2.47
2018-12-03T10:28:44.938Z,3.27
2018-12-03T10:31:15.815Z,2.00
2018-12-03T10:33:46.799Z,2.70
2018-12-03T10:36:18.402Z,1.67
2018-12-03T10:38:50.007Z,2.33
2018-12-03T10:41:30.166Z,2.33
2018-12-03T10:44:02.718Z,1.97
2018-12-03T10:46:33.663Z,2.67
2018-12-03T10:49:08.924Z,2.37
2018-12-03T10:51:39.732Z,1.60
2018-12-03T10:54:10.330Z,2.03
2018-12-03T10:56:40.941Z,2.27
2018-12-03T10:59:11.538Z,2.33
2018-12-03T11:01:47.222Z,2.00
2018-12-03T11:04:22.791Z,1.57
2018-12-03T11:06:53.440Z,1.43
2018-12-03T11:09:32.974Z,2.57
2018-12-03T11:11:59.658Z,1.97
2018-12-03T11:14:30.478Z,2.13
2018-12-03T11:17:01.490Z,1.97
2018-12-03T11:19:32.154Z,2.00
2018-12-03T11:22:02.930Z,1.40
2018-12-03T11:24:33.663Z,1.77
2018-12-03T11:27:04.430Z,1.30
2018-12-03T11:29:41.090Z,1.87
2018-12-03T11:32:11.666Z,1.43
2018-12-03T11:34:42.462Z,2.67
2018-12-03T11:37:17.653Z,1.60
2018-12-03T11:39:54.571Z,1.70
2018-12-03T11:42:28.704Z,2.10
2018-12-03T11:44:59.490Z,1.97
2018-12-03T11:47:30.644Z,1.60
2018-12-03T11:50:02.522Z,1.27
2018-12-03T11:52:33.334Z,1.20
2018-12-03T11:55:04.340Z,1.40
2018-12-03T11:57:35.546Z,2.13
2018-12-03T12:00:10.739Z,1.40
2018-12-03T12:02:41.538Z,1.40
2018-12-03T12:05:12.183Z,1.10
2018-12-03T12:07:43.547Z,1.50
2018-12-03T12:10:14.114Z,1.70
2018-12-03T12:12:45.507Z,2.10
2018-12-03T12:15:57.874Z,3.30
2018-12-03T12:18:29.054Z,1.83
2018-12-03T12:20:59.655Z,1.20
2018-12-03T12:23:30.495Z,1.80
2018-12-03T12:26:01.327Z,1.40
2018-12-03T12:28:31.950Z,1.10
2018-12-03T12:31:02.753Z,1.63
2018-12-03T12:33:33.530Z,2.23
2018-12-03T12:36:04.186Z,1.20
2018-12-03T12:38:34.848Z,1.30
2018-12-03T12:41:06.139Z,1.20
2018-12-03T12:43:38.010Z,1.30
2018-12-03T12:46:12.026Z,1.23
2018-12-03T12:48:43.054Z,1.60
2018-12-03T12:51:13.675Z,1.73
2018-12-03T12:53:45.329Z,2.53
2018-12-03T12:56:15.957Z,1.93
2018-12-03T12:58:46.862Z,2.13
2018-12-03T13:01:17.522Z,2.20
2018-12-03T13:03:49.050Z,4.00
2018-12-03T13:06:19.619Z,2.80
2018-12-03T13:08:50.285Z,3.60
2018-12-03T13:11:20.897Z,4.30
2018-12-03T13:13:52.006Z,4.40
2018-12-03T13:16:22.720Z,4.50
2018-12-03T13:18:53.581Z,4.03
2018-12-03T13:21:24.210Z,3.60
2018-12-03T13:23:54.986Z,5.40
2018-12-03T13:26:25.770Z,3.30
2018-12-03T13:28:56.735Z,5.13
2018-12-03T13:31:27.323Z,7.20
2018-12-03T13:33:59.113Z,3.90
2018-12-03T13:36:29.674Z,7.20
2018-12-03T13:39:00.368Z,3.90
2018-12-03T13:41:31.050Z,3.70
2018-12-03T13:44:01.622Z,4.70
2018-12-03T13:46:32.577Z,3.80
2018-12-03T13:49:03.178Z,3.10
2018-12-03T13:51:35.976Z,8.37
2018-12-03T13:54:08.695Z,6.60
2018-12-03T13:56:39.692Z,4.13
2018-12-03T13:59:11.426Z,4.60
2018-12-03T14:01:42.140Z,5.50
2018-12-03T14:04:15.703Z,11.10
2018-12-03T14:06:56.148Z,10.53
2018-12-03T14:11:15.527Z,6.53
2018-12-03T14:14:19.038Z,3.07
2018-12-03T14:17:04.307Z,4.20
2018-12-03T14:19:35.247Z,2.40
2018-12-03T14:22:11.640Z,3.00
2018-12-03T14:24:42.245Z,2.23
2018-12-03T14:27:14.160Z,3.93
2018-12-03T14:29:45.804Z,2.60
2018-12-03T14:32:16.812Z,3.93
2018-12-03T14:34:48.432Z,4.60
2018-12-03T14:37:19.066Z,2.77
2018-12-03T14:39:49.814Z,3.10
2018-12-03T14:42:20.924Z,4.83
2018-12-03T14:44:51.935Z,4.43
2018-12-03T14:47:22.538Z,4.00
2018-12-03T14:49:53.226Z,5.90
2018-12-03T14:52:23.899Z,5.07
2018-12-03T14:54:54.586Z,5.43
2018-12-03T14:57:25.230Z,5.77
2018-12-03T14:59:56.451Z,5.27
2018-12-03T15:02:27.446Z,4.80
2018-12-03T15:04:58.673Z,5.27
2018-12-03T15:07:29.307Z,4.90
2018-12-03T15:10:00.049Z,5.97
2018-12-03T15:12:30.625Z,7.17
2018-12-03T15:15:01.375Z,6.33
2018-12-03T15:17:32.010Z,5.53
2018-12-03T15:20:02.887Z,5.13
2018-12-03T15:22:33.485Z,7.20
2018-12-03T15:25:05.062Z,4.07
2018-12-03T15:27:35.997Z,4.20
2018-12-03T15:30:09.732Z,8.33
2018-12-03T15:32:40.323Z,10.80
2018-12-03T15:35:12.203Z,8.53
2018-12-03T15:37:42.796Z,6.67
2018-12-03T15:40:16.428Z,7.73
2018-12-03T15:42:47.080Z,9.03
2018-12-03T15:45:18.569Z,12.03
2018-12-03T15:47:49.172Z,6.00
2018-12-03T15:50:19.813Z,6.33
2018-12-03T15:52:50.392Z,8.60
2018-12-03T15:55:21.103Z,6.57
2018-12-03T15:57:51.753Z,8.47
2018-12-03T16:00:22.393Z,10.70
2018-12-03T16:02:53.074Z,12.67
2018-12-03T16:05:26.230Z,7.83
2018-12-03T16:07:56.990Z,11.20
2018-12-03T16:10:27.626Z,10.90
2018-12-03T16:12:58.230Z,7.97
2018-12-03T16:15:28.927Z,9.47
2018-12-03T16:17:59.607Z,9.20
2018-12-03T16:20:31.231Z,8.00
2018-12-03T16:23:02.415Z,6.27
2018-12-03T16:25:33.073Z,5.83
2018-12-03T16:28:03.768Z,5.50
2018-12-03T16:30:35.607Z,3.93
2018-12-03T16:33:06.801Z,4.63
2018-12-03T16:35:41.282Z,4.83
2018-12-03T16:38:11.873Z,5.20
2018-12-03T16:40:43.268Z,5.07
2018-12-03T16:43:13.890Z,4.43
2018-12-03T16:45:44.643Z,4.50
2018-12-03T16:48:15.217Z,2.80
2018-12-03T16:50:46.547Z,2.70
2018-12-03T16:53:17.226Z,4.77
2018-12-03T16:55:47.894Z,2.53
2018-12-03T16:58:18.661Z,2.03
2018-12-03T17:00:49.270Z,2.53
2018-12-03T17:03:19.897Z,2.73
2018-12-03T17:05:50.583Z,2.07
2018-12-03T17:08:21.217Z,4.53
2018-12-03T17:10:52.150Z,2.60
2018-12-03T17:13:22.758Z,2.73
2018-12-03T17:15:53.354Z,2.60
2018-12-03T17:18:26.078Z,1.97
2018-12-03T17:21:13.130Z,2.90
2018-12-03T17:23:58.798Z,2.73
2018-12-03T17:26:29.403Z,2.40
2018-12-03T17:29:00.160Z,2.57
2018-12-03T17:31:31.330Z,2.37
2018-12-03T17:34:02.246Z,2.10
2018-12-03T17:36:32.946Z,1.20
2018-12-03T17:39:17.679Z,4.10
2018-12-03T17:41:50.468Z,3.07
2018-12-03T17:44:21.179Z,2.23
2018-12-03T17:46:51.949Z,2.37
2018-12-03T17:49:22.646Z,1.80
2018-12-03T17:51:53.345Z,1.70
2018-12-03T17:54:24.011Z,1.60
2018-12-03T17:56:54.622Z,1.60
2018-12-03T17:59:25.269Z,2.07
2018-12-03T18:01:56.265Z,1.60
2018-12-03T18:04:27.002Z,4.80
2018-12-03T18:06:58.067Z,2.43
2018-12-03T18:09:28.744Z,4.53
2018-12-03T18:11:59.445Z,1.30
2018-12-03T18:14:30.123Z,1.63
2018-12-03T18:17:01.235Z,1.80
2018-12-03T18:19:32.087Z,2.20
2018-12-03T18:22:02.941Z,2.20
2018-12-03T18:24:33.875Z,3.07
2018-12-03T18:27:04.614Z,3.23
2018-12-03T18:29:35.210Z,2.63
2018-12-03T18:32:05.846Z,2.33
2018-12-03T18:34:36.545Z,5.03
2018-12-03T18:37:07.218Z,2.93
2018-12-03T18:39:37.883Z,2.43
2018-12-03T18:42:09.030Z,2.10
2018-12-03T18:44:40.772Z,1.90
2018-12-03T18:47:11.322Z,2.87
2018-12-03T18:49:46.487Z,3.30
2018-12-03T18:52:18.827Z,2.33
2018-12-03T18:54:50.145Z,4.90
2018-12-03T18:57:20.754Z,4.23
2018-12-03T18:59:51.498Z,3.00
2018-12-03T19:02:22.196Z,3.07
2018-12-03T19:04:52.774Z,4.10
2018-12-03T19:07:23.409Z,2.40
2018-12-03T19:09:54.474Z,3.10
2018-12-03T19:12:25.102Z,2.30
2018-12-03T19:14:55.742Z,3.10
2018-12-03T19:17:27.351Z,3.00
2018-12-03T19:19:57.994Z,2.40
2018-12-03T19:22:28.636Z,3.50
2018-12-03T19:24:59.253Z,2.20
2018-12-03T19:27:29.914Z,4.20
2018-12-03T19:30:00.522Z,5.17
2018-12-03T19:32:32.907Z,5.00
2018-12-03T19:35:20.971Z,1.77
2018-12-03T19:37:53.316Z,2.23
2018-12-03T19:40:23.926Z,2.97
2018-12-03T19:42:55.606Z,1.97
2018-12-03T19:48:06.069Z,2.20
2018-12-03T19:50:36.958Z,4.00
2018-12-03T19:53:08.610Z,3.57
2018-12-03T19:55:39.726Z,2.33
2018-12-03T19:58:21.690Z,3.30
2018-12-03T20:00:52.314Z,4.10
2018-12-03T20:03:23.187Z,3.93
2018-12-03T20:05:54.893Z,2.30
2018-12-03T20:08:25.651Z,1.70
2018-12-03T20:10:56.932Z,3.67
2018-12-03T20:13:27.714Z,1.90
2018-12-03T20:15:58.702Z,2.10
2018-12-03T20:18:29.342Z,2.00
2018-12-03T20:21:15.394Z,1.87
2018-12-03T20:24:05.810Z,2.23
2018-12-03T20:26:50.968Z,1.60
2018-12-03T20:29:31.354Z,1.50
2018-12-03T20:32:57.000Z,1.40
2018-12-03T20:36:13.304Z,2.47
2018-12-03T20:39:35.914Z,1.90
2018-12-03T20:42:07.758Z,2.40
2018-12-03T20:45:06.691Z,1.60
2018-12-03T20:47:48.038Z,1.40
2018-12-03T20:50:44.645Z,1.70
2018-12-03T20:53:20.364Z,2.10
2018-12-03T20:55:52.246Z,2.00
2018-12-03T20:58:22.939Z,2.27
2018-12-03T21:00:54.974Z,2.87
2018-12-03T21:03:25.671Z,3.70
2018-12-03T21:05:56.366Z,2.97
2018-12-03T21:08:27.089Z,4.03
2018-12-03T21:10:57.805Z,3.20
2018-12-03T21:13:29.376Z,3.17
2018-12-03T21:16:02.463Z,3.23
2018-12-03T21:18:33.095Z,3.60
2018-12-03T21:21:06.254Z,2.97
2018-12-03T21:23:36.906Z,3.37
2018-12-03T21:26:07.492Z,2.30
2018-12-03T21:28:38.155Z,3.67
2018-12-03T21:31:08.784Z,2.90
2018-12-03T21:33:39.654Z,2.23
2018-12-03T21:36:10.275Z,4.23
2018-12-03T21:38:41.136Z,2.97
2018-12-03T21:41:11.901Z,2.77
2018-12-03T21:43:43.680Z,3.47
2018-12-03T21:46:14.293Z,6.03
2018-12-03T21:48:45.062Z,2.20
2018-12-03T21:51:15.637Z,4.63
2018-12-03T21:53:46.257Z,3.77
2018-12-03T21:56:17.177Z,3.03
2018-12-03T21:58:48.102Z,3.20
2018-12-03T22:01:18.950Z,3.97
2018-12-03T22:03:49.582Z,4.77
2018-12-03T22:06:20.691Z,3.10
2018-12-03T22:08:51.737Z,4.90
2018-12-03T22:11:22.338Z,4.30
2018-12-03T22:13:52.989Z,5.37
2018-12-03T22:16:23.560Z,4.27
2018-12-03T22:18:54.325Z,4.17
2018-12-03T22:21:24.942Z,6.30
2018-12-03T22:23:55.629Z,3.73
2018-12-03T22:26:26.338Z,5.30
2018-12-03T22:28:57.015Z,3.90
2018-12-03T22:31:27.918Z,5.63
2018-12-03T22:33:58.578Z,3.73
2018-12-03T22:36:29.245Z,7.43
2018-12-03T22:39:00.322Z,5.10
2018-12-03T22:41:31.263Z,2.83
2018-12-03T22:44:02.431Z,3.90
2018-12-03T22:46:33.174Z,7.07
2018-12-03T22:49:04.393Z,3.97
2018-12-03T22:51:34.995Z,3.67
2018-12-03T22:54:05.924Z,3.77
2018-12-03T22:56:36.538Z,6.03
2018-12-03T22:59:07.244Z,6.90
2018-12-03T23:01:38.555Z,4.80
2018-12-03T23:04:09.291Z,4.60
2018-12-03T23:06:39.972Z,4.23
2018-12-03T23:09:10.662Z,4.70
2018-12-03T23:11:41.362Z,5.70
2018-12-03T23:14:12.462Z,3.63
2018-12-03T23:16:49.741Z,4.37
2018-12-03T23:19:20.382Z,8.30
2018-12-03T23:21:51.443Z,5.87
2018-12-03T23:24:22.290Z,4.60
2018-12-03T23:26:53.402Z,4.97
2018-12-03T23:29:23.979Z,5.23
2018-12-03T23:31:54.662Z,3.27
2018-12-03T23:34:25.409Z,2.73
2018-12-03T23:36:56.408Z,4.60
2018-12-03T23:39:27.114Z,9.63
2018-12-03T23:41:58.070Z,4.83
2018-12-03T23:44:28.912Z,2.57
2018-12-03T23:46:59.618Z,3.40
2018-12-03T23:49:30.195Z,3.73
2018-12-03T23:52:02.128Z,3.40
2018-12-03T23:54:32.785Z,4.30
2018-12-03T23:57:04.621Z,2.93
2018-12-03T23:59:35.253Z,2.93
